sensor_id;sensor_type;location;lat;lon;timestamp;P1;durP1;ratioP1;P2;durP2;ratioP2
11960;SDS011;6040;49.358;11.140;2023-06-22T00:02:27;9.75;;;7.65;;
11960;SDS011;6040;49.358;11.140;2023-06-22T00:04:54;9.57;;;7.65;;
11960;SDS011;6040;49.358;11.140;2023-06-22T00:07:21;8.57;;;7.67;;
11960;SDS011;6040;49.358;11.140;2023-06-22T00:09:48;8.10;;;7.28;;
11960;SDS011;6040;49.358;11.140;2023-06-22T00:12:15;8.05;;;7.22;;
11960;SDS011;6040;49.358;11.140;2023-06-22T00:14:42;9.27;;;7.53;;
11960;SDS011;6040;49.358;11.140;2023-06-22T00:17:09;9.05;;;7.47;;
11960;SDS011;6040;49.358;11.140;2023-06-22T00:19:37;8.63;;;7.72;;
11960;SDS011;6040;49.358;11.140;2023-06-22T00:22:05;9.40;;;7.30;;
11960;SDS011;6040;49.358;11.140;2023-06-22T00:24:32;8.48;;;7.55;;
11960;SDS011;6040;49.358;11.140;2023-06-22T00:26:59;8.63;;;7.50;;
11960;SDS011;6040;49.358;11.140;2023-06-22T00:29:26;9.88;;;7.60;;
11960;SDS011;6040;49.358;11.140;2023-06-22T00:31:52;9.32;;;7.32;;
11960;SDS011;6040;49.358;11.140;2023-06-22T00:34:19;8.10;;;6.80;;
11960;SDS011;6040;49.358;11.140;2023-06-22T00:36:47;9.85;;;7.40;;
11960;SDS011;6040;49.358;11.140;2023-06-22T00:39:16;8.50;;;7.10;;
11960;SDS011;6040;49.358;11.140;2023-06-22T00:41:43;8.15;;;7.13;;
11960;SDS011;6040;49.358;11.140;2023-06-22T00:44:10;8.05;;;7.22;;
11960;SDS011;6040;49.358;11.140;2023-06-22T00:46:37;8.43;;;6.93;;
11960;SDS011;6040;49.358;11.140;2023-06-22T00:49:04;8.18;;;7.07;;
11960;SDS011;6040;49.358;11.140;2023-06-22T00:51:31;9.15;;;7.35;;
11960;SDS011;6040;49.358;11.140;2023-06-22T00:53:59;8.15;;;7.18;;
11960;SDS011;6040;49.358;11.140;2023-06-22T00:56:26;8.70;;;7.10;;
11960;SDS011;6040;49.358;11.140;2023-06-22T00:58:55;10.75;;;7.65;;
11960;SDS011;6040;49.358;11.140;2023-06-22T01:01:22;9.43;;;7.50;;
11960;SDS011;6040;49.358;11.140;2023-06-22T01:03:49;8.82;;;7.38;;
11960;SDS011;6040;49.358;11.140;2023-06-22T01:06:19;8.27;;;7.30;;
11960;SDS011;6040;49.358;11.140;2023-06-22T01:08:53;8.80;;;7.10;;
11960;SDS011;6040;49.358;11.140;2023-06-22T01:11:32;7.90;;;7.10;;
11960;SDS011;6040;49.358;11.140;2023-06-22T01:14:05;9.50;;;7.78;;
11960;SDS011;6040;49.358;11.140;2023-06-22T01:16:37;9.80;;;7.70;;
11960;SDS011;6040;49.358;11.140;2023-06-22T01:19:09;8.20;;;7.40;;
11960;SDS011;6040;49.358;11.140;2023-06-22T01:21:51;8.90;;;7.65;;
11960;SDS011;6040;49.358;11.140;2023-06-22T01:24:22;7.80;;;7.00;;
11960;SDS011;6040;49.358;11.140;2023-06-22T01:27:00;7.57;;;6.22;;
11960;SDS011;6040;49.358;11.140;2023-06-22T01:29:37;6.78;;;6.13;;
11960;SDS011;6040;49.358;11.140;2023-06-22T01:32:05;7.57;;;6.40;;
11960;SDS011;6040;49.358;11.140;2023-06-22T01:34:32;6.97;;;6.18;;
11960;SDS011;6040;49.358;11.140;2023-06-22T01:37:00;8.43;;;6.53;;
11960;SDS011;6040;49.358;11.140;2023-06-22T01:39:28;7.22;;;6.07;;
11960;SDS011;6040;49.358;11.140;2023-06-22T01:41:56;6.90;;;6.20;;
11960;SDS011;6040;49.358;11.140;2023-06-22T01:44:23;8.20;;;5.90;;
11960;SDS011;6040;49.358;11.140;2023-06-22T01:46:53;7.10;;;6.22;;
11960;SDS011;6040;49.358;11.140;2023-06-22T01:49:20;9.63;;;6.65;;
11960;SDS011;6040;49.358;11.140;2023-06-22T01:51:47;7.60;;;6.40;;
11960;SDS011;6040;49.358;11.140;2023-06-22T01:54:14;7.80;;;6.60;;
11960;SDS011;6040;49.358;11.140;2023-06-22T01:56:41;7.32;;;6.45;;
11960;SDS011;6040;49.358;11.140;2023-06-22T01:59:09;7.28;;;6.53;;
11960;SDS011;6040;49.358;11.140;2023-06-22T02:01:42;7.97;;;6.40;;
11960;SDS011;6040;49.358;11.140;2023-06-22T02:04:17;7.15;;;6.30;;
11960;SDS011;6040;49.358;11.140;2023-06-22T02:06:47;7.72;;;6.95;;
11960;SDS011;6040;49.358;11.140;2023-06-22T02:09:17;8.07;;;7.22;;
11960;SDS011;6040;49.358;11.140;2023-06-22T02:11:47;7.93;;;7.13;;
11960;SDS011;6040;49.358;11.140;2023-06-22T02:14:16;7.72;;;6.93;;
11960;SDS011;6040;49.358;11.140;2023-06-22T02:16:44;7.83;;;7.03;;
11960;SDS011;6040;49.358;11.140;2023-06-22T02:19:13;8.23;;;6.95;;
11960;SDS011;6040;49.358;11.140;2023-06-22T02:21:43;8.32;;;7.20;;
11960;SDS011;6040;49.358;11.140;2023-06-22T02:24:10;7.93;;;7.13;;
11960;SDS011;6040;49.358;11.140;2023-06-22T02:26:37;8.00;;;7.20;;
11960;SDS011;6040;49.358;11.140;2023-06-22T02:29:04;7.72;;;6.93;;
11960;SDS011;6040;49.358;11.140;2023-06-22T02:31:31;7.72;;;6.93;;
11960;SDS011;6040;49.358;11.140;2023-06-22T02:33:58;7.97;;;6.95;;
11960;SDS011;6040;49.358;11.140;2023-06-22T02:36:27;8.50;;;7.07;;
11960;SDS011;6040;49.358;11.140;2023-06-22T02:38:55;7.97;;;7.13;;
11960;SDS011;6040;49.358;11.140;2023-06-22T02:41:25;8.48;;;7.22;;
11960;SDS011;6040;49.358;11.140;2023-06-22T02:43:52;8.93;;;7.20;;
11960;SDS011;6040;49.358;11.140;2023-06-22T02:46:19;7.78;;;6.90;;
11960;SDS011;6040;49.358;11.140;2023-06-22T02:48:46;10.13;;;7.32;;
11960;SDS011;6040;49.358;11.140;2023-06-22T02:51:13;8.02;;;7.00;;
11960;SDS011;6040;49.358;11.140;2023-06-22T02:53:41;7.43;;;6.55;;
11960;SDS011;6040;49.358;11.140;2023-06-22T02:56:09;7.80;;;6.55;;
11960;SDS011;6040;49.358;11.140;2023-06-22T02:58:37;7.82;;;7.03;;
11960;SDS011;6040;49.358;11.140;2023-06-22T03:01:04;10.20;;;8.27;;
11960;SDS011;6040;49.358;11.140;2023-06-22T03:03:31;10.45;;;8.43;;
11960;SDS011;6040;49.358;11.140;2023-06-22T03:05:58;10.38;;;8.30;;
11960;SDS011;6040;49.358;11.140;2023-06-22T03:08:26;9.65;;;8.65;;
11960;SDS011;6040;49.358;11.140;2023-06-22T03:10:55;10.45;;;9.10;;
11960;SDS011;6040;49.358;11.140;2023-06-22T03:13:22;10.10;;;9.10;;
11960;SDS011;6040;49.358;11.140;2023-06-22T03:15:48;10.23;;;9.23;;
11960;SDS011;6040;49.358;11.140;2023-06-22T03:18:15;9.90;;;8.73;;
11960;SDS011;6040;49.358;11.140;2023-06-22T03:20:42;10.38;;;8.50;;
11960;SDS011;6040;49.358;11.140;2023-06-22T03:23:09;11.07;;;7.80;;
11960;SDS011;6040;49.358;11.140;2023-06-22T03:25:36;8.90;;;7.40;;
11960;SDS011;6040;49.358;11.140;2023-06-22T03:28:04;9.57;;;8.50;;
11960;SDS011;6040;49.358;11.140;2023-06-22T03:30:31;9.35;;;8.27;;
11960;SDS011;6040;49.358;11.140;2023-06-22T03:32:57;9.98;;;8.98;;
11960;SDS011;6040;49.358;11.140;2023-06-22T03:35:24;12.02;;;9.93;;
11960;SDS011;6040;49.358;11.140;2023-06-22T03:37:51;10.60;;;9.32;;
11960;SDS011;6040;49.358;11.140;2023-06-22T03:40:18;13.27;;;9.80;;
11960;SDS011;6040;49.358;11.140;2023-06-22T03:42:45;10.50;;;9.40;;
11960;SDS011;6040;49.358;11.140;2023-06-22T03:45:13;10.02;;;9.05;;
11960;SDS011;6040;49.358;11.140;2023-06-22T03:47:40;11.98;;;9.27;;
11960;SDS011;6040;49.358;11.140;2023-06-22T03:50:07;10.75;;;9.60;;
11960;SDS011;6040;49.358;11.140;2023-06-22T03:52:34;10.65;;;9.20;;
11960;SDS011;6040;49.358;11.140;2023-06-22T03:55:01;10.18;;;9.05;;
11960;SDS011;6040;49.358;11.140;2023-06-22T03:57:28;10.57;;;9.15;;
11960;SDS011;6040;49.358;11.140;2023-06-22T03:59:56;10.95;;;9.38;;
11960;SDS011;6040;49.358;11.140;2023-06-22T04:02:25;11.85;;;9.18;;
11960;SDS011;6040;49.358;11.140;2023-06-22T04:04:51;10.95;;;9.15;;
11960;SDS011;6040;49.358;11.140;2023-06-22T04:07:18;11.43;;;9.20;;
11960;SDS011;6040;49.358;11.140;2023-06-22T04:09:45;10.35;;;9.13;;
11960;SDS011;6040;49.358;11.140;2023-06-22T04:12:12;10.18;;;9.07;;
11960;SDS011;6040;49.358;11.140;2023-06-22T04:14:39;11.85;;;9.10;;
11960;SDS011;6040;49.358;11.140;2023-06-22T04:17:05;10.17;;;8.90;;
11960;SDS011;6040;49.358;11.140;2023-06-22T04:19:33;9.90;;;8.90;;
11960;SDS011;6040;49.358;11.140;2023-06-22T04:22:00;10.40;;;9.05;;
11960;SDS011;6040;49.358;11.140;2023-06-22T04:24:27;10.68;;;9.30;;
11960;SDS011;6040;49.358;11.140;2023-06-22T04:26:54;10.50;;;9.18;;
11960;SDS011;6040;49.358;11.140;2023-06-22T04:29:21;10.23;;;8.93;;
11960;SDS011;6040;49.358;11.140;2023-06-22T04:31:53;11.90;;;9.57;;
11960;SDS011;6040;49.358;11.140;2023-06-22T04:34:22;11.05;;;9.40;;
11960;SDS011;6040;49.358;11.140;2023-06-22T04:36:52;10.57;;;9.48;;
11960;SDS011;6040;49.358;11.140;2023-06-22T04:39:20;10.55;;;9.43;;
11960;SDS011;6040;49.358;11.140;2023-06-22T04:41:47;10.60;;;8.95;;
11960;SDS011;6040;49.358;11.140;2023-06-22T04:44:15;11.05;;;9.75;;
11960;SDS011;6040;49.358;11.140;2023-06-22T04:46:48;11.50;;;10.10;;
11960;SDS011;6040;49.358;11.140;2023-06-22T04:49:19;12.10;;;9.85;;
11960;SDS011;6040;49.358;11.140;2023-06-22T04:51:47;10.37;;;9.17;;
11960;SDS011;6040;49.358;11.140;2023-06-22T04:54:18;11.45;;;9.27;;
11960;SDS011;6040;49.358;11.140;2023-06-22T04:56:44;10.75;;;9.52;;
11960;SDS011;6040;49.358;11.140;2023-06-22T04:59:11;10.82;;;9.68;;
11960;SDS011;6040;49.358;11.140;2023-06-22T05:01:39;13.45;;;9.93;;
11960;SDS011;6040;49.358;11.140;2023-06-22T05:04:05;10.43;;;9.32;;
11960;SDS011;6040;49.358;11.140;2023-06-22T05:06:33;9.73;;;8.73;;
11960;SDS011;6040;49.358;11.140;2023-06-22T05:09:00;10.80;;;9.25;;
11960;SDS011;6040;49.358;11.140;2023-06-22T05:11:29;10.52;;;9.52;;
11960;SDS011;6040;49.358;11.140;2023-06-22T05:13:56;10.20;;;9.20;;
11960;SDS011;6040;49.358;11.140;2023-06-22T05:16:23;9.68;;;8.70;;
11960;SDS011;6040;49.358;11.140;2023-06-22T05:18:51;10.38;;;8.32;;
11960;SDS011;6040;49.358;11.140;2023-06-22T05:21:21;9.57;;;8.57;;
11960;SDS011;6040;49.358;11.140;2023-06-22T05:23:49;9.77;;;8.70;;
11960;SDS011;6040;49.358;11.140;2023-06-22T05:26:16;11.27;;;8.80;;
11960;SDS011;6040;49.358;11.140;2023-06-22T05:28:44;9.82;;;8.30;;
11960;SDS011;6040;49.358;11.140;2023-06-22T05:31:12;9.63;;;8.50;;
11960;SDS011;6040;49.358;11.140;2023-06-22T05:33:39;11.30;;;8.10;;
11960;SDS011;6040;49.358;11.140;2023-06-22T05:36:06;12.18;;;8.25;;
11960;SDS011;6040;49.358;11.140;2023-06-22T05:38:33;10.45;;;8.05;;
11960;SDS011;6040;49.358;11.140;2023-06-22T05:41:00;9.63;;;7.72;;
11960;SDS011;6040;49.358;11.140;2023-06-22T05:43:27;10.32;;;7.95;;
11960;SDS011;6040;49.358;11.140;2023-06-22T05:45:55;8.63;;;7.15;;
11960;SDS011;6040;49.358;11.140;2023-06-22T05:48:22;8.82;;;7.47;;
11960;SDS011;6040;49.358;11.140;2023-06-22T05:50:49;9.98;;;7.57;;
11960;SDS011;6040;49.358;11.140;2023-06-22T05:53:16;8.07;;;7.28;;
11960;SDS011;6040;49.358;11.140;2023-06-22T05:55:43;9.52;;;7.13;;
11960;SDS011;6040;49.358;11.140;2023-06-22T05:58:09;7.43;;;6.68;;
11960;SDS011;6040;49.358;11.140;2023-06-22T06:00:38;10.05;;;7.30;;
11960;SDS011;6040;49.358;11.140;2023-06-22T06:03:06;8.38;;;6.80;;
11960;SDS011;6040;49.358;11.140;2023-06-22T06:05:34;11.63;;;7.20;;
11960;SDS011;6040;49.358;11.140;2023-06-22T06:08:01;9.13;;;6.70;;
11960;SDS011;6040;49.358;11.140;2023-06-22T06:10:30;8.43;;;6.88;;
11960;SDS011;6040;49.358;11.140;2023-06-22T06:12:57;8.57;;;6.50;;
11960;SDS011;6040;49.358;11.140;2023-06-22T06:15:26;8.75;;;6.47;;
11960;SDS011;6040;49.358;11.140;2023-06-22T06:17:53;8.25;;;6.60;;
11960;SDS011;6040;49.358;11.140;2023-06-22T06:20:22;8.15;;;6.13;;
11960;SDS011;6040;49.358;11.140;2023-06-22T06:22:51;7.95;;;6.30;;
11960;SDS011;6040;49.358;11.140;2023-06-22T06:25:18;7.55;;;6.45;;
11960;SDS011;6040;49.358;11.140;2023-06-22T06:27:46;8.30;;;6.40;;
11960;SDS011;6040;49.358;11.140;2023-06-22T06:30:15;8.60;;;6.30;;
11960;SDS011;6040;49.358;11.140;2023-06-22T06:32:42;9.02;;;6.55;;
11960;SDS011;6040;49.358;11.140;2023-06-22T06:35:10;6.60;;;5.90;;
11960;SDS011;6040;49.358;11.140;2023-06-22T06:37:40;7.32;;;6.10;;
11960;SDS011;6040;49.358;11.140;2023-06-22T06:40:09;7.18;;;6.13;;
11960;SDS011;6040;49.358;11.140;2023-06-22T06:42:37;6.82;;;6.00;;
11960;SDS011;6040;49.358;11.140;2023-06-22T06:45:07;8.13;;;6.43;;
11960;SDS011;6040;49.358;11.140;2023-06-22T06:47:34;9.13;;;6.20;;
11960;SDS011;6040;49.358;11.140;2023-06-22T06:50:01;6.72;;;5.53;;
11960;SDS011;6040;49.358;11.140;2023-06-22T06:52:29;6.53;;;5.93;;
11960;SDS011;6040;49.358;11.140;2023-06-22T06:54:57;7.38;;;5.85;;
11960;SDS011;6040;49.358;11.140;2023-06-22T06:57:24;8.93;;;5.80;;
11960;SDS011;6040;49.358;11.140;2023-06-22T06:59:53;7.77;;;5.93;;
11960;SDS011;6040;49.358;11.140;2023-06-22T07:02:21;7.13;;;5.32;;
11960;SDS011;6040;49.358;11.140;2023-06-22T07:04:48;8.45;;;5.78;;
11960;SDS011;6040;49.358;11.140;2023-06-22T07:07:16;6.45;;;5.75;;
11960;SDS011;6040;49.358;11.140;2023-06-22T07:09:43;9.45;;;5.57;;
11960;SDS011;6040;49.358;11.140;2023-06-22T07:12:11;7.80;;;5.55;;
11960;SDS011;6040;49.358;11.140;2023-06-22T07:14:37;8.00;;;5.65;;
11960;SDS011;6040;49.358;11.140;2023-06-22T07:17:04;6.55;;;5.30;;
11960;SDS011;6040;49.358;11.140;2023-06-22T07:19:32;6.85;;;5.22;;
11960;SDS011;6040;49.358;11.140;2023-06-22T07:21:59;7.28;;;5.30;;
11960;SDS011;6040;49.358;11.140;2023-06-22T07:24:26;6.03;;;5.43;;
11960;SDS011;6040;49.358;11.140;2023-06-22T07:26:53;7.13;;;5.72;;
11960;SDS011;6040;49.358;11.140;2023-06-22T07:29:21;8.43;;;5.20;;
11960;SDS011;6040;49.358;11.140;2023-06-22T07:31:49;5.68;;;4.93;;
11960;SDS011;6040;49.358;11.140;2023-06-22T07:34:17;5.90;;;5.30;;
11960;SDS011;6040;49.358;11.140;2023-06-22T07:36:44;7.18;;;5.40;;
11960;SDS011;6040;49.358;11.140;2023-06-22T07:39:11;5.93;;;5.07;;
11960;SDS011;6040;49.358;11.140;2023-06-22T07:41:38;6.32;;;4.90;;
11960;SDS011;6040;49.358;11.140;2023-06-22T07:44:05;5.63;;;4.97;;
11960;SDS011;6040;49.358;11.140;2023-06-22T07:46:34;6.78;;;4.80;;
11960;SDS011;6040;49.358;11.140;2023-06-22T07:49:02;5.47;;;4.50;;
11960;SDS011;6040;49.358;11.140;2023-06-22T07:51:28;9.00;;;4.82;;
11960;SDS011;6040;49.358;11.140;2023-06-22T07:53:55;6.73;;;4.70;;
11960;SDS011;6040;49.358;11.140;2023-06-22T07:56:22;5.85;;;4.57;;
11960;SDS011;6040;49.358;11.140;2023-06-22T07:58:49;7.25;;;4.60;;
11960;SDS011;6040;49.358;11.140;2023-06-22T08:01:16;5.70;;;4.90;;
11960;SDS011;6040;49.358;11.140;2023-06-22T08:03:47;6.57;;;4.65;;
11960;SDS011;6040;49.358;11.140;2023-06-22T08:06:14;7.32;;;4.35;;
11960;SDS011;6040;49.358;11.140;2023-06-22T08:08:41;7.03;;;4.50;;
11960;SDS011;6040;49.358;11.140;2023-06-22T08:11:08;6.53;;;4.50;;
11960;SDS011;6040;49.358;11.140;2023-06-22T08:13:35;6.57;;;4.40;;
11960;SDS011;6040;49.358;11.140;2023-06-22T08:16:02;6.23;;;4.80;;
11960;SDS011;6040;49.358;11.140;2023-06-22T08:18:29;7.40;;;4.60;;
11960;SDS011;6040;49.358;11.140;2023-06-22T08:20:58;7.03;;;4.68;;
11960;SDS011;6040;49.358;11.140;2023-06-22T08:23:24;7.18;;;5.00;;
11960;SDS011;6040;49.358;11.140;2023-06-22T08:25:51;8.13;;;4.90;;
11960;SDS011;6040;49.358;11.140;2023-06-22T08:28:18;6.40;;;4.40;;
11960;SDS011;6040;49.358;11.140;2023-06-22T08:30:45;9.90;;;4.72;;
11960;SDS011;6040;49.358;11.140;2023-06-22T08:33:12;6.30;;;4.60;;
11960;SDS011;6040;49.358;11.140;2023-06-22T08:35:39;6.75;;;4.65;;
11960;SDS011;6040;49.358;11.140;2023-06-22T08:38:07;5.50;;;4.38;;
11960;SDS011;6040;49.358;11.140;2023-06-22T08:40:34;7.75;;;4.68;;
11960;SDS011;6040;49.358;11.140;2023-06-22T08:43:00;7.45;;;4.65;;
11960;SDS011;6040;49.358;11.140;2023-06-22T08:45:27;7.40;;;4.80;;
11960;SDS011;6040;49.358;11.140;2023-06-22T08:47:54;7.07;;;4.88;;
11960;SDS011;6040;49.358;11.140;2023-06-22T08:50:21;6.55;;;4.63;;
11960;SDS011;6040;49.358;11.140;2023-06-22T08:52:48;8.23;;;4.65;;
11960;SDS011;6040;49.358;11.140;2023-06-22T08:55:16;7.07;;;4.85;;
11960;SDS011;6040;49.358;11.140;2023-06-22T08:57:43;8.27;;;5.00;;
11960;SDS011;6040;49.358;11.140;2023-06-22T09:00:10;6.93;;;4.47;;
11960;SDS011;6040;49.358;11.140;2023-06-22T09:02:41;8.48;;;4.60;;
11960;SDS011;6040;49.358;11.140;2023-06-22T09:05:08;8.57;;;4.55;;
11960;SDS011;6040;49.358;11.140;2023-06-22T09:07:35;6.57;;;4.28;;
11960;SDS011;6040;49.358;11.140;2023-06-22T09:10:02;7.53;;;4.93;;
11960;SDS011;6040;49.358;11.140;2023-06-22T09:12:32;7.25;;;4.50;;
11960;SDS011;6040;49.358;11.140;2023-06-22T09:14:59;7.50;;;4.60;;
11960;SDS011;6040;49.358;11.140;2023-06-22T09:17:27;8.18;;;4.57;;
11960;SDS011;6040;49.358;11.140;2023-06-22T09:19:54;6.68;;;4.47;;
11960;SDS011;6040;49.358;11.140;2023-06-22T09:22:21;9.60;;;4.60;;
11960;SDS011;6040;49.358;11.140;2023-06-22T09:24:48;9.15;;;4.65;;
11960;SDS011;6040;49.358;11.140;2023-06-22T09:27:15;9.82;;;4.60;;
11960;SDS011;6040;49.358;11.140;2023-06-22T09:29:43;7.70;;;4.75;;
11960;SDS011;6040;49.358;11.140;2023-06-22T09:32:10;9.38;;;4.63;;
11960;SDS011;6040;49.358;11.140;2023-06-22T09:34:37;8.85;;;4.20;;
11960;SDS011;6040;49.358;11.140;2023-06-22T09:37:04;8.32;;;4.90;;
11960;SDS011;6040;49.358;11.140;2023-06-22T09:39:31;9.02;;;4.40;;
11960;SDS011;6040;49.358;11.140;2023-06-22T09:41:58;7.25;;;4.57;;
11960;SDS011;6040;49.358;11.140;2023-06-22T09:44:25;8.70;;;4.95;;
11960;SDS011;6040;49.358;11.140;2023-06-22T09:46:53;9.38;;;4.38;;
11960;SDS011;6040;49.358;11.140;2023-06-22T09:49:20;9.10;;;4.80;;
11960;SDS011;6040;49.358;11.140;2023-06-22T09:51:47;8.75;;;4.75;;
11960;SDS011;6040;49.358;11.140;2023-06-22T09:54:16;7.93;;;4.63;;
11960;SDS011;6040;49.358;11.140;2023-06-22T09:56:42;8.15;;;4.60;;
11960;SDS011;6040;49.358;11.140;2023-06-22T09:59:09;7.63;;;4.57;;
11960;SDS011;6040;49.358;11.140;2023-06-22T10:01:36;7.63;;;4.78;;
11960;SDS011;6040;49.358;11.140;2023-06-22T10:04:04;9.68;;;4.85;;
11960;SDS011;6040;49.358;11.140;2023-06-22T10:06:31;7.07;;;4.60;;
11960;SDS011;6040;49.358;11.140;2023-06-22T10:08:58;9.18;;;5.00;;
11960;SDS011;6040;49.358;11.140;2023-06-22T10:11:25;10.73;;;4.77;;
11960;SDS011;6040;49.358;11.140;2023-06-22T10:13:55;9.57;;;4.90;;
11960;SDS011;6040;49.358;11.140;2023-06-22T10:16:23;9.43;;;5.30;;
11960;SDS011;6040;49.358;11.140;2023-06-22T10:18:51;7.60;;;4.70;;
11960;SDS011;6040;49.358;11.140;2023-06-22T10:21:20;10.85;;;4.88;;
11960;SDS011;6040;49.358;11.140;2023-06-22T10:23:46;17.23;;;5.45;;
11960;SDS011;6040;49.358;11.140;2023-06-22T10:26:13;10.05;;;5.00;;
11960;SDS011;6040;49.358;11.140;2023-06-22T10:28:40;10.73;;;4.90;;
11960;SDS011;6040;49.358;11.140;2023-06-22T10:31:07;14.52;;;5.07;;
11960;SDS011;6040;49.358;11.140;2023-06-22T10:33:34;10.43;;;4.83;;
11960;SDS011;6040;49.358;11.140;2023-06-22T10:36:00;7.88;;;4.80;;
11960;SDS011;6040;49.358;11.140;2023-06-22T10:38:29;11.18;;;5.15;;
11960;SDS011;6040;49.358;11.140;2023-06-22T10:40:55;9.60;;;4.93;;
11960;SDS011;6040;49.358;11.140;2023-06-22T10:43:22;11.38;;;5.18;;
11960;SDS011;6040;49.358;11.140;2023-06-22T10:45:49;10.87;;;4.90;;
11960;SDS011;6040;49.358;11.140;2023-06-22T10:48:16;7.68;;;4.93;;
11960;SDS011;6040;49.358;11.140;2023-06-22T10:50:42;8.80;;;4.90;;
11960;SDS011;6040;49.358;11.140;2023-06-22T10:53:09;8.77;;;4.80;;
11960;SDS011;6040;49.358;11.140;2023-06-22T10:55:37;8.47;;;4.93;;
11960;SDS011;6040;49.358;11.140;2023-06-22T10:58:04;8.98;;;4.80;;
11960;SDS011;6040;49.358;11.140;2023-06-22T11:00:31;9.57;;;5.07;;
11960;SDS011;6040;49.358;11.140;2023-06-22T11:02:58;12.55;;;5.32;;
11960;SDS011;6040;49.358;11.140;2023-06-22T11:05:25;9.55;;;4.47;;
11960;SDS011;6040;49.358;11.140;2023-06-22T11:07:52;8.90;;;4.75;;
11960;SDS011;6040;49.358;11.140;2023-06-22T11:10:18;10.15;;;4.93;;
11960;SDS011;6040;49.358;11.140;2023-06-22T11:12:47;10.48;;;4.80;;
11960;SDS011;6040;49.358;11.140;2023-06-22T11:15:13;10.50;;;4.87;;
11960;SDS011;6040;49.358;11.140;2023-06-22T11:17:40;10.23;;;5.20;;
11960;SDS011;6040;49.358;11.140;2023-06-22T11:20:07;8.77;;;4.70;;
11960;SDS011;6040;49.358;11.140;2023-06-22T11:22:36;10.57;;;4.97;;
11960;SDS011;6040;49.358;11.140;2023-06-22T11:25:04;11.35;;;4.88;;
11960;SDS011;6040;49.358;11.140;2023-06-22T11:27:31;10.13;;;5.03;;
11960;SDS011;6040;49.358;11.140;2023-06-22T11:30:00;10.23;;;4.97;;
11960;SDS011;6040;49.358;11.140;2023-06-22T11:32:26;10.52;;;5.05;;
11960;SDS011;6040;49.358;11.140;2023-06-22T11:34:53;14.98;;;5.60;;
11960;SDS011;6040;49.358;11.140;2023-06-22T11:37:21;10.00;;;4.70;;
11960;SDS011;6040;49.358;11.140;2023-06-22T11:39:48;10.65;;;4.93;;
11960;SDS011;6040;49.358;11.140;2023-06-22T11:42:14;9.07;;;4.80;;
11960;SDS011;6040;49.358;11.140;2023-06-22T11:44:41;10.07;;;5.30;;
11960;SDS011;6040;49.358;11.140;2023-06-22T11:47:10;10.45;;;4.93;;
11960;SDS011;6040;49.358;11.140;2023-06-22T11:49:37;10.52;;;4.95;;
11960;SDS011;6040;49.358;11.140;2023-06-22T11:52:04;10.73;;;4.80;;
11960;SDS011;6040;49.358;11.140;2023-06-22T11:54:31;11.68;;;4.90;;
11960;SDS011;6040;49.358;11.140;2023-06-22T11:56:58;8.07;;;4.57;;
11960;SDS011;6040;49.358;11.140;2023-06-22T11:59:25;8.70;;;4.78;;
11960;SDS011;6040;49.358;11.140;2023-06-22T12:01:52;9.32;;;4.63;;
11960;SDS011;6040;49.358;11.140;2023-06-22T12:04:20;11.07;;;4.68;;
11960;SDS011;6040;49.358;11.140;2023-06-22T12:06:47;12.07;;;5.00;;
11960;SDS011;6040;49.358;11.140;2023-06-22T12:09:13;10.52;;;4.90;;
11960;SDS011;6040;49.358;11.140;2023-06-22T12:11:40;10.98;;;4.93;;
11960;SDS011;6040;49.358;11.140;2023-06-22T12:14:07;9.63;;;4.75;;
11960;SDS011;6040;49.358;11.140;2023-06-22T12:16:34;11.75;;;4.97;;
11960;SDS011;6040;49.358;11.140;2023-06-22T12:19:00;9.38;;;4.70;;
11960;SDS011;6040;49.358;11.140;2023-06-22T12:21:29;12.53;;;4.80;;
11960;SDS011;6040;49.358;11.140;2023-06-22T12:23:55;14.18;;;4.95;;
11960;SDS011;6040;49.358;11.140;2023-06-22T12:26:22;11.13;;;4.90;;
11960;SDS011;6040;49.358;11.140;2023-06-22T12:28:49;8.75;;;4.47;;
11960;SDS011;6040;49.358;11.140;2023-06-22T12:31:16;9.10;;;4.97;;
11960;SDS011;6040;49.358;11.140;2023-06-22T12:33:43;10.77;;;5.15;;
11960;SDS011;6040;49.358;11.140;2023-06-22T12:36:10;14.38;;;5.20;;
11960;SDS011;6040;49.358;11.140;2023-06-22T12:38:38;9.32;;;4.95;;
11960;SDS011;6040;49.358;11.140;2023-06-22T12:41:05;9.77;;;4.80;;
11960;SDS011;6040;49.358;11.140;2023-06-22T12:43:32;8.63;;;5.28;;
11960;SDS011;6040;49.358;11.140;2023-06-22T12:45:58;14.93;;;5.70;;
11960;SDS011;6040;49.358;11.140;2023-06-22T12:48:25;12.30;;;5.18;;
11960;SDS011;6040;49.358;11.140;2023-06-22T12:50:53;10.38;;;5.25;;
11960;SDS011;6040;49.358;11.140;2023-06-22T12:53:20;10.77;;;4.85;;
11960;SDS011;6040;49.358;11.140;2023-06-22T12:55:49;10.90;;;5.20;;
11960;SDS011;6040;49.358;11.140;2023-06-22T12:58:15;10.15;;;5.43;;
11960;SDS011;6040;49.358;11.140;2023-06-22T13:00:42;9.60;;;4.97;;
11960;SDS011;6040;49.358;11.140;2023-06-22T13:03:09;11.90;;;5.35;;
11960;SDS011;6040;49.358;11.140;2023-06-22T13:05:36;10.15;;;5.30;;
11960;SDS011;6040;49.358;11.140;2023-06-22T13:08:03;8.80;;;5.38;;
11960;SDS011;6040;49.358;11.140;2023-06-22T13:10:30;10.32;;;5.32;;
11960;SDS011;6040;49.358;11.140;2023-06-22T13:12:58;12.70;;;5.55;;
11960;SDS011;6040;49.358;11.140;2023-06-22T13:15:26;10.77;;;5.45;;
11960;SDS011;6040;49.358;11.140;2023-06-22T13:17:53;12.27;;;5.47;;
11960;SDS011;6040;49.358;11.140;2023-06-22T13:20:21;11.80;;;5.45;;
11960;SDS011;6040;49.358;11.140;2023-06-22T13:22:47;8.57;;;5.50;;
11960;SDS011;6040;49.358;11.140;2023-06-22T13:25:14;12.60;;;5.50;;
11960;SDS011;6040;49.358;11.140;2023-06-22T13:27:44;11.00;;;5.60;;
11960;SDS011;6040;49.358;11.140;2023-06-22T13:30:12;9.73;;;5.30;;
11960;SDS011;6040;49.358;11.140;2023-06-22T13:32:39;10.95;;;5.68;;
11960;SDS011;6040;49.358;11.140;2023-06-22T13:35:07;9.65;;;5.10;;
11960;SDS011;6040;49.358;11.140;2023-06-22T13:37:34;9.83;;;4.80;;
11960;SDS011;6040;49.358;11.140;2023-06-22T13:40:01;8.63;;;4.90;;
11960;SDS011;6040;49.358;11.140;2023-06-22T13:42:30;11.52;;;4.90;;
11960;SDS011;6040;49.358;11.140;2023-06-22T13:44:57;11.98;;;4.90;;
11960;SDS011;6040;49.358;11.140;2023-06-22T13:47:25;15.13;;;5.18;;
11960;SDS011;6040;49.358;11.140;2023-06-22T13:49:52;16.30;;;5.20;;
11960;SDS011;6040;49.358;11.140;2023-06-22T13:52:19;13.93;;;4.90;;
11960;SDS011;6040;49.358;11.140;2023-06-22T13:54:45;14.20;;;5.25;;
11960;SDS011;6040;49.358;11.140;2023-06-22T13:57:12;13.50;;;5.15;;
11960;SDS011;6040;49.358;11.140;2023-06-22T13:59:39;9.30;;;4.97;;
11960;SDS011;6040;49.358;11.140;2023-06-22T14:02:06;13.48;;;4.80;;
11960;SDS011;6040;49.358;11.140;2023-06-22T14:04:34;13.18;;;4.93;;
11960;SDS011;6040;49.358;11.140;2023-06-22T14:07:01;13.30;;;5.05;;
11960;SDS011;6040;49.358;11.140;2023-06-22T14:09:28;10.57;;;5.07;;
11960;SDS011;6040;49.358;11.140;2023-06-22T14:11:54;10.25;;;4.80;;
11960;SDS011;6040;49.358;11.140;2023-06-22T14:14:21;10.77;;;5.40;;
11960;SDS011;6040;49.358;11.140;2023-06-22T14:16:48;15.32;;;5.43;;
11960;SDS011;6040;49.358;11.140;2023-06-22T14:19:16;11.55;;;4.88;;
11960;SDS011;6040;49.358;11.140;2023-06-22T14:21:45;13.90;;;4.80;;
11960;SDS011;6040;49.358;11.140;2023-06-22T14:24:12;10.88;;;5.00;;
11960;SDS011;6040;49.358;11.140;2023-06-22T14:26:39;14.43;;;5.10;;
11960;SDS011;6040;49.358;11.140;2023-06-22T14:29:05;13.00;;;5.50;;
11960;SDS011;6040;49.358;11.140;2023-06-22T14:31:32;12.38;;;5.60;;
11960;SDS011;6040;49.358;11.140;2023-06-22T14:33:59;12.35;;;5.60;;
11960;SDS011;6040;49.358;11.140;2023-06-22T14:36:27;12.48;;;5.30;;
11960;SDS011;6040;49.358;11.140;2023-06-22T14:38:55;13.20;;;5.40;;
11960;SDS011;6040;49.358;11.140;2023-06-22T14:41:22;11.50;;;4.97;;
11960;SDS011;6040;49.358;11.140;2023-06-22T14:43:49;14.65;;;5.40;;
11960;SDS011;6040;49.358;11.140;2023-06-22T14:46:17;9.33;;;4.70;;